• Join FlightAware (Why Join?)
  • Login
  • US Flag 
04:49AM EDT


 

Airport Tracker/Info


-or-


 

Live Flight TrackerFlight Track Log ✈ CEB805 ✈ 27-Dec-2013 ✈ RPLL / MNL - WSSS / SIN

Flight Track Log - Related Links

Times and Time Zones

All times are in EST time to prevent confusion due to time zone crossing. See the CEB805 flight status page for this flight to view local times or setup timezone preferences in your user account.

Time Position Orientation Groundspeed Altitude Reporting Facility
EST Latitude Longitude Course Direction KTS MPH feet Rate Location/Type
01:15AM 14.3443 120.7975 205° Southwest  Level Estimated
01:16AM 14.2430 120.7540 203° Southwest  Level FlightAware Approximate
01:17AM 14.1416 120.7105 203° Southwest  Level FlightAware Approximate
01:18AM 14.0403 120.6670 203° Southwest  Level FlightAware Approximate
01:19AM 13.9390 120.6236 203° Southwest  Level FlightAware Approximate
01:20AM 13.8376 120.5802 203° Southwest  Level FlightAware Approximate
01:21AM 13.7362 120.5369 203° Southwest  Level FlightAware Approximate
01:22AM 13.6349 120.4936 203° Southwest  Level FlightAware Approximate
01:23AM 13.5335 120.4503 203° Southwest  Level FlightAware Approximate
01:24AM 13.4321 120.4071 203° Southwest  Level FlightAware Approximate
01:25AM 13.3308 120.3639 203° Southwest  Level FlightAware Approximate
01:26AM 13.2294 120.3208 203° Southwest  Level FlightAware Approximate
01:27AM 13.1280 120.2777 202° Southwest  Level FlightAware Approximate
01:28AM 13.0266 120.2346 202° Southwest  Level FlightAware Approximate
01:29AM 12.9641 120.1419 234° Southwest  Level Estimated
01:30AM 12.8889 120.0600 227° Southwest  Level FlightAware Approximate
01:31AM 12.8136 119.9781 227° Southwest  Level FlightAware Approximate
01:32AM 12.7383 119.8962 227° Southwest  Level FlightAware Approximate
01:33AM 12.6630 119.8144 227° Southwest  Level FlightAware Approximate
01:34AM 12.5877 119.7326 227° Southwest  Level FlightAware Approximate
01:35AM 12.5123 119.6508 227° Southwest  Level FlightAware Approximate
01:36AM 12.4369 119.5692 227° Southwest  Level FlightAware Approximate
01:37AM 12.3615 119.4875 227° Southwest  Level FlightAware Approximate
01:38AM 12.2861 119.4060 227° Southwest  Level FlightAware Approximate
01:39AM 12.2106 119.3244 227° Southwest  Level FlightAware Approximate
01:40AM 12.1351 119.2429 227° Southwest  Level FlightAware Approximate
01:41AM 12.0596 119.1615 227° Southwest  Level FlightAware Approximate
01:42AM 11.9840 119.0801 227° Southwest  Level FlightAware Approximate
01:43AM 11.9085 118.9987 226° Southwest  Level FlightAware Approximate
01:44AM 11.8329 118.9174 226° Southwest  Level FlightAware Approximate
01:45AM 11.7573 118.8362 226° Southwest  Level FlightAware Approximate
01:46AM 11.6817 118.7549 226° Southwest  Level FlightAware Approximate
01:47AM 11.6060 118.6738 226° Southwest  Level FlightAware Approximate
01:48AM 11.5303 118.5926 226° Southwest  Level FlightAware Approximate
01:49AM 11.4546 118.5116 226° Southwest  Level FlightAware Approximate
01:50AM 11.3941 118.4467 226° Southwest  Level FlightAware Approximate
01:51AM 11.3335 118.3819 226° Southwest  Level FlightAware Approximate
01:52AM 11.2729 118.3171 226° Southwest  Level FlightAware Approximate
01:53AM 11.2123 118.2524 226° Southwest  Level FlightAware Approximate
01:54AM 11.1516 118.1876 226° Southwest  Level FlightAware Approximate
01:55AM 11.0910 118.1229 226° Southwest  Level FlightAware Approximate
01:56AM 11.0303 118.0583 226° Southwest  Level FlightAware Approximate
01:57AM 10.9697 117.9936 226° Southwest  Level FlightAware Approximate
01:58AM 10.9090 117.9290 226° Southwest  Level FlightAware Approximate
01:59AM 10.8483 117.8644 226° Southwest  Level FlightAware Approximate
02:00AM 10.7875 117.7998 226° Southwest  Level FlightAware Approximate
02:01AM 10.7268 117.7353 226° Southwest  Level FlightAware Approximate
02:02AM 10.6661 117.6708 226° Southwest  Level FlightAware Approximate
02:03AM 10.6053 117.6063 226° Southwest  Level FlightAware Approximate
02:04AM 10.5446 117.5418 226° Southwest  Level FlightAware Approximate
02:05AM 10.4838 117.4773 226° Southwest  Level FlightAware Approximate
02:06AM 10.4230 117.4129 226° Southwest  Level FlightAware Approximate
02:07AM 10.3622 117.3485 226° Southwest  Level FlightAware Approximate
02:08AM 10.3014 117.2842 226° Southwest  Level FlightAware Approximate
02:09AM 10.2405 117.2198 226° Southwest  Level FlightAware Approximate
02:10AM 10.1797 117.1555 226° Southwest  Level FlightAware Approximate
02:11AM 10.1188 117.0912 226° Southwest  Level FlightAware Approximate
02:12AM 10.0580 117.0270 226° Southwest  Level FlightAware Approximate
02:13AM 9.9971 116.9627 226° Southwest  Level FlightAware Approximate
02:14AM 9.9362 116.8985 226° Southwest  Level FlightAware Approximate
02:15AM 9.8753 116.8343 226° Southwest  Level FlightAware Approximate
02:16AM 9.8144 116.7701 226° Southwest  Level FlightAware Approximate
02:17AM 9.7667 116.6953 233° Southwest  Level Estimated
02:18AM 9.7133 116.6246 233° Southwest  Level FlightAware Approximate
02:19AM 9.6598 116.5540 232° Southwest  Level FlightAware Approximate
02:20AM 9.6063 116.4834 232° Southwest  Level FlightAware Approximate
02:21AM 9.5528 116.4128 232° Southwest  Level FlightAware Approximate
02:22AM 9.4993 116.3422 232° Southwest  Level FlightAware Approximate
02:23AM 9.4458 116.2716 232° Southwest  Level FlightAware Approximate
02:24AM 9.3923 116.2011 232° Southwest  Level FlightAware Approximate
02:25AM 9.3387 116.1305 232° Southwest  Level FlightAware Approximate
02:26AM 9.2852 116.0601 232° Southwest  Level FlightAware Approximate
02:27AM 9.2316 115.9896 232° Southwest  Level FlightAware Approximate
02:28AM 9.1780 115.9191 232° Southwest  Level FlightAware Approximate
02:29AM 9.1244 115.8487 232° Southwest  Level FlightAware Approximate
02:30AM 9.0708 115.7783 232° Southwest  Level FlightAware Approximate
02:31AM 9.0172 115.7079 232° Southwest  Level FlightAware Approximate
02:32AM 8.9635 115.6375 232° Southwest  Level FlightAware Approximate
02:33AM 8.9099 115.5672 232° Southwest  Level FlightAware Approximate
02:34AM 8.8562 115.4968 232° Southwest  Level FlightAware Approximate
02:35AM 8.8025 115.4265 232° Southwest  Level FlightAware Approximate
02:36AM 8.7488 115.3562 232° Southwest  Level FlightAware Approximate
02:37AM 8.6951 115.2860 232° Southwest  Level FlightAware Approximate
02:38AM 8.6414 115.2157 232° Southwest  Level FlightAware Approximate
02:39AM 8.5877 115.1455 232° Southwest  Level FlightAware Approximate
02:40AM 8.5339 115.0753 232° Southwest  Level FlightAware Approximate
02:41AM 8.4801 115.0051 232° Southwest  Level FlightAware Approximate
02:42AM 8.4264 114.9349 232° Southwest  Level FlightAware Approximate
02:43AM 8.3726 114.8648 232° Southwest  Level FlightAware Approximate
02:44AM 8.3188 114.7946 232° Southwest  Level FlightAware Approximate
02:45AM 8.2650 114.7245 232° Southwest  Level FlightAware Approximate
02:46AM 8.2112 114.6544 232° Southwest  Level FlightAware Approximate
02:47AM 8.1573 114.5844 232° Southwest  Level FlightAware Approximate
02:48AM 8.1035 114.5143 232° Southwest  Level FlightAware Approximate
02:49AM 8.0496 114.4443 232° Southwest  Level FlightAware Approximate
02:50AM 7.9957 114.3743 232° Southwest  Level FlightAware Approximate
02:51AM 7.9419 114.3043 232° Southwest  Level FlightAware Approximate
02:52AM 7.8880 114.2343 232° Southwest  Level FlightAware Approximate
02:53AM 7.8341 114.1643 232° Southwest  Level FlightAware Approximate
02:54AM 7.7802 114.0944 232° Southwest  Level FlightAware Approximate
02:55AM 7.7262 114.0245 232° Southwest  Level FlightAware Approximate
02:56AM 7.6723 113.9546 232° Southwest  Level FlightAware Approximate
02:57AM 7.6183 113.8847 232° Southwest  Level FlightAware Approximate
02:58AM 7.5644 113.8148 232° Southwest  Level FlightAware Approximate
02:59AM 7.5104 113.7450 232° Southwest  Level FlightAware Approximate
03:00AM 7.4564 113.6751 232° Southwest  Level FlightAware Approximate
03:01AM 7.4024 113.6053 232° Southwest  Level FlightAware Approximate
03:02AM 7.3484 113.5355 232° Southwest  Level FlightAware Approximate
03:03AM 7.2944 113.4657 232° Southwest  Level FlightAware Approximate
03:04AM 7.2404 113.3960 232° Southwest  Level FlightAware Approximate
03:05AM 7.1863 113.3262 232° Southwest  Level FlightAware Approximate
03:06AM 7.1323 113.2565 232° Southwest  Level FlightAware Approximate
03:07AM 7.0782 113.1868 232° Southwest  Level FlightAware Approximate
03:08AM 7.0242 113.1171 232° Southwest  Level FlightAware Approximate
03:09AM 6.9701 113.0474 232° Southwest  Level FlightAware Approximate
03:10AM 6.9160 112.9777 232° Southwest  Level FlightAware Approximate
03:11AM 6.8619 112.9081 232° Southwest  Level FlightAware Approximate
03:12AM 6.8078 112.8384 232° Southwest  Level FlightAware Approximate
03:13AM 6.7537 112.7688 232° Southwest  Level FlightAware Approximate
03:14AM 6.6995 112.6992 232° Southwest  Level FlightAware Approximate
03:15AM 6.6454 112.6296 232° Southwest  Level FlightAware Approximate
03:16AM 6.5912 112.5600 232° Southwest  Level FlightAware Approximate
03:17AM 6.5371 112.4904 232° Southwest  Level FlightAware Approximate
03:18AM 6.4829 112.4209 232° Southwest  Level FlightAware Approximate
03:19AM 6.4287 112.3514 232° Southwest  Level FlightAware Approximate
03:20AM 6.3745 112.2819 232° Southwest  Level FlightAware Approximate
03:21AM 6.3204 112.2124 232° Southwest  Level FlightAware Approximate
03:22AM 6.2661 112.1429 232° Southwest  Level FlightAware Approximate
03:23AM 6.2119 112.0734 232° Southwest  Level FlightAware Approximate
03:24AM 6.1577 112.0039 232° Southwest  Level FlightAware Approximate
03:25AM 6.1035 111.9345 232° Southwest  Level FlightAware Approximate
03:26AM 6.0487 111.8644 232° Southwest  Level FlightAware Approximate
03:27AM 5.9940 111.7944 232° Southwest  Level FlightAware Approximate
03:28AM 5.9392 111.7243 232° Southwest  Level FlightAware Approximate
03:29AM 5.8845 111.6543 232° Southwest  Level FlightAware Approximate
03:30AM 5.8297 111.5843 232° Southwest  Level FlightAware Approximate
03:31AM 5.7749 111.5143 232° Southwest  Level FlightAware Approximate
03:32AM 5.7201 111.4443 232° Southwest  Level FlightAware Approximate
03:33AM 5.6653 111.3744 232° Southwest  Level FlightAware Approximate
03:34AM 5.6105 111.3044 232° Southwest  Level FlightAware Approximate
03:35AM 5.5557 111.2345 232° Southwest  Level FlightAware Approximate
03:36AM 5.5009 111.1645 232° Southwest  Level FlightAware Approximate
03:37AM 5.4461 111.0946 232° Southwest  Level FlightAware Approximate
03:38AM 5.3912 111.0247 232° Southwest  Level FlightAware Approximate
03:39AM 5.3364 110.9548 232° Southwest  Level FlightAware Approximate
03:40AM 5.2815 110.8849 232° Southwest  Level FlightAware Approximate
03:41AM 5.2267 110.8151 232° Southwest  Level FlightAware Approximate
03:42AM 5.1718 110.7452 232° Southwest  Level FlightAware Approximate
03:43AM 5.1169 110.6754 232° Southwest  Level FlightAware Approximate
03:44AM 5.0620 110.6056 232° Southwest  Level FlightAware Approximate
03:45AM 5.0071 110.5357 232° Southwest  Level FlightAware Approximate
03:46AM 4.9642 110.4579 233° Southwest  Level Estimated
03:47AM 4.9102 110.3874 232° Southwest  Level FlightAware Approximate
03:48AM 4.8562 110.3169 232° Southwest  Level FlightAware Approximate
03:49AM 4.8022 110.2464 232° Southwest  Level FlightAware Approximate
03:50AM 4.7513 110.1799 232° Southwest  Level FlightAware Approximate
03:51AM 4.7003 110.1134 232° Southwest  Level FlightAware Approximate
03:52AM 4.6493 110.0469 232° Southwest  Level FlightAware Approximate
03:53AM 4.5984 109.9804 232° Southwest  Level FlightAware Approximate
03:54AM 4.5474 109.9139 232° Southwest  Level FlightAware Approximate
03:55AM 4.4964 109.8474 232° Southwest  Level FlightAware Approximate
03:56AM 4.4454 109.7810 232° Southwest  Level FlightAware Approximate
03:57AM 4.3918 109.7112 232° Southwest  Level FlightAware Approximate
03:58AM 4.3383 109.6414 232° Southwest  Level FlightAware Approximate
03:59AM 4.2847 109.5716 232° Southwest  Level FlightAware Approximate
04:00AM 4.2311 109.5019 232° Southwest  Level FlightAware Approximate
04:01AM 4.1775 109.4322 232° Southwest  Level FlightAware Approximate
04:02AM 4.1239 109.3624 232° Southwest  Level FlightAware Approximate
04:03AM 4.0704 109.2927 232° Southwest  Level FlightAware Approximate
04:04AM 4.0167 109.2230 232° Southwest  Level FlightAware Approximate
04:05AM 3.9631 109.1533 232° Southwest  Level FlightAware Approximate
04:06AM 3.9095 109.0836 232° Southwest  Level FlightAware Approximate
04:07AM 3.8559 109.0139 232° Southwest  Level FlightAware Approximate
04:08AM 3.8023 108.9442 232° Southwest  Level FlightAware Approximate
04:09AM 3.7487 108.8746 232° Southwest  Level FlightAware Approximate
04:10AM 3.6953 108.8052 232° Southwest  Level FlightAware Approximate
04:11AM 3.6419 108.7359 232° Southwest  Level FlightAware Approximate
04:12AM 3.5885 108.6666 232° Southwest  Level FlightAware Approximate
04:13AM 3.5351 108.5973 232° Southwest  Level FlightAware Approximate
04:14AM 3.4819 108.5283 232° Southwest  Level FlightAware Approximate
04:15AM 3.4287 108.4593 232° Southwest  Level FlightAware Approximate
04:16AM 3.3755 108.3903 232° Southwest  Level FlightAware Approximate
04:17AM 3.3223 108.3213 232° Southwest  Level FlightAware Approximate
04:18AM 3.2692 108.2523 232° Southwest  Level FlightAware Approximate
04:19AM 3.2160 108.1834 232° Southwest  Level FlightAware Approximate
04:20AM 3.1628 108.1144 232° Southwest  Level FlightAware Approximate
04:21AM 3.1095 108.0455 232° Southwest  Level FlightAware Approximate
04:22AM 3.0563 107.9765 232° Southwest  Level FlightAware Approximate
04:23AM 3.0031 107.9076 232° Southwest  Level FlightAware Approximate
04:24AM 2.9499 107.8387 232° Southwest  Level FlightAware Approximate
04:25AM 2.8967 107.7698 232° Southwest  Level FlightAware Approximate
04:26AM 2.8435 107.7008 232° Southwest  Level FlightAware Approximate
04:27AM 2.7902 107.6319 232° Southwest  Level FlightAware Approximate
04:28AM 2.7370 107.5630 232° Southwest  Level FlightAware Approximate
04:29AM 2.6837 107.4941 232° Southwest  Level FlightAware Approximate
04:30AM 2.6305 107.4252 232° Southwest  Level FlightAware Approximate
04:31AM 2.5773 107.3564 232° Southwest  Level FlightAware Approximate
04:32AM 2.5240 107.2875 232° Southwest  Level FlightAware Approximate
04:33AM 2.4708 107.2186 232° Southwest  Level FlightAware Approximate
04:34AM 2.4175 107.1497 232° Southwest  Level FlightAware Approximate
04:35AM 2.3642 107.0809 232° Southwest  Level FlightAware Approximate
04:36AM 2.3110 107.0120 232° Southwest  Level FlightAware Approximate
04:37AM 2.2577 106.9432 232° Southwest  Level FlightAware Approximate
04:38AM 2.2044 106.8744 232° Southwest  Level FlightAware Approximate
04:39AM 2.1512 106.8055 232° Southwest  Level FlightAware Approximate
04:40AM 2.0979 106.7367 232° Southwest  Level FlightAware Approximate
04:41AM 2.0753 106.6526 233° Southwest  Level Estimated
04:42AM 2.0526 106.5685 233° Southwest  Level Estimated
04:43AM 2.0300 106.4845 233° Southwest  Level Estimated
04:44AM 2.0074 106.4004 233° Southwest  Level Estimated
04:45AM 1.9847 106.3164 233° Southwest  Level Estimated
04:46AM 1.9621 106.2323 233° Southwest  Level Estimated
04:47AM 1.9394 106.1482 233° Southwest  Level Estimated
04:48AM 1.9168 106.0642 233° Southwest  Level Estimated
04:49AM 1.8941 105.9801 233° Southwest  Level Estimated
04:50AM 1.8715 105.8961 233° Southwest  Level Estimated
04:51AM 1.8488 105.8120 233° Southwest  Level Estimated
04:52AM 1.8261 105.7280 233° Southwest  Level Estimated
04:53AM 1.8034 105.6440 233° Southwest  Level Estimated
04:54AM 1.7808 105.5599 233° Southwest  Level Estimated
04:55AM 1.7581 105.4759 233° Southwest  Level Estimated
04:56AM 1.7354 105.3918 233° Southwest  Level Estimated
04:57AM 1.7127 105.3078 233° Southwest  Level Estimated
04:58AM 1.6900 105.2238 233° Southwest  Level Estimated
04:59AM 1.6673 105.1397 233° Southwest  Level Estimated
05:00AM 1.6446 105.0557 233° Southwest  Level Estimated
05:01AM 1.6219 104.9717 233° Southwest  Level Estimated
05:02AM 1.5992 104.8877 233° Southwest  Level Estimated
05:03AM 1.5765 104.8036 233° Southwest  Level Estimated
05:04AM 1.5538 104.7196 233° Southwest  Level Estimated
05:05AM 1.5311 104.6356 233° Southwest  Level Estimated
05:06AM 1.5084 104.5516 233° Southwest  Level Estimated
05:07AM 1.4856 104.4676 233° Southwest  Level Estimated
05:08AM 1.4629 104.3836 233° Southwest  Level Estimated
05:09AM 1.4402 104.2996 233° Southwest  Level Estimated
05:10AM 1.4174 104.2155 233° Southwest  Level Estimated